createdAt,value
2019-02-03T00:00:14.382Z,9.37
2019-02-03T00:01:14.374Z,9.46
2019-02-03T00:02:14.366Z,9.18
2019-02-03T00:03:14.355Z,9.18
2019-02-03T00:04:14.347Z,9.18
2019-02-03T00:05:14.339Z,8.89
2019-02-03T00:06:14.330Z,8.80
2019-02-03T00:07:14.322Z,8.70
2019-02-03T00:08:14.314Z,8.80
2019-02-03T00:09:14.306Z,8.80
2019-02-03T00:10:14.296Z,8.70
2019-02-03T00:11:14.289Z,8.33
2019-02-03T00:12:14.280Z,8.23
2019-02-03T00:13:14.272Z,8.04
2019-02-03T00:14:14.286Z,7.86
2019-02-03T00:15:14.254Z,7.76
2019-02-03T00:16:14.247Z,7.95
2019-02-03T00:17:14.237Z,7.48
2019-02-03T00:18:14.232Z,7.57
2019-02-03T00:19:14.221Z,7.48
2019-02-03T00:20:14.211Z,7.48
2019-02-03T00:21:14.204Z,7.57
2019-02-03T00:22:14.195Z,7.48
2019-02-03T00:23:14.184Z,7.38
2019-02-03T00:24:14.277Z,7.38
2019-02-03T00:25:14.167Z,7.48
2019-02-03T00:26:14.161Z,7.19
2019-02-03T00:27:14.150Z,7.10
2019-02-03T00:28:14.143Z,7.19
2019-02-03T00:29:14.134Z,7.38
2019-02-03T00:30:14.127Z,7.19
2019-02-03T00:31:14.116Z,7.29
2019-02-03T00:32:14.109Z,7.10
2019-02-03T00:33:14.099Z,7.10
2019-02-03T00:34:14.092Z,6.91
2019-02-03T00:35:14.083Z,7.00
2019-02-03T00:36:14.074Z,6.81
2019-02-03T00:37:16.572Z,6.81
2019-02-03T00:38:22.961Z,6.62
2019-02-03T00:39:14.051Z,6.72
2019-02-03T00:40:14.040Z,6.91
2019-02-03T00:41:14.106Z,6.81
2019-02-03T00:42:14.024Z,7.00
2019-02-03T00:43:14.015Z,6.72
2019-02-03T00:44:14.006Z,6.53
2019-02-03T00:45:14.000Z,6.72
2019-02-03T00:46:13.990Z,6.53
2019-02-03T00:47:13.981Z,6.62
2019-02-03T00:48:13.972Z,6.53
2019-02-03T00:49:13.964Z,6.34
2019-02-03T00:50:13.956Z,6.43
2019-02-03T00:51:13.948Z,6.62
2019-02-03T00:52:13.938Z,6.72
2019-02-03T00:53:13.931Z,6.91
2019-02-03T00:54:13.924Z,6.81
2019-02-03T00:55:13.912Z,7.00
2019-02-03T00:56:13.904Z,6.72
2019-02-03T00:57:13.897Z,7.10
2019-02-03T00:58:13.894Z,7.19
2019-02-03T00:59:13.880Z,6.91
2019-02-03T01:00:13.871Z,6.72
2019-02-03T01:01:13.863Z,6.91
2019-02-03T01:02:13.855Z,6.72
2019-02-03T01:03:13.844Z,6.53
2019-02-03T01:04:13.838Z,6.72
2019-02-03T01:05:13.829Z,6.72
2019-02-03T01:06:13.819Z,6.81
2019-02-03T01:07:13.810Z,6.24
2019-02-03T01:08:13.802Z,6.24
2019-02-03T01:09:13.796Z,6.53
2019-02-03T01:10:13.786Z,6.53
2019-02-03T01:11:13.777Z,6.15
2019-02-03T01:12:13.768Z,6.15
2019-02-03T01:13:13.759Z,6.34
2019-02-03T01:14:13.751Z,6.24
2019-02-03T01:15:13.742Z,6.15
2019-02-03T01:16:13.737Z,5.77
2019-02-03T01:17:13.725Z,5.77
2019-02-03T01:18:13.717Z,5.96
2019-02-03T01:19:13.708Z,5.68
2019-02-03T01:20:13.699Z,5.68
2019-02-03T01:21:13.691Z,5.68
2019-02-03T01:22:13.681Z,5.11
2019-02-03T01:23:13.672Z,5.30
2019-02-03T01:24:13.663Z,5.58
2019-02-03T01:25:13.656Z,5.39
2019-02-03T01:26:13.647Z,5.20
2019-02-03T01:27:13.638Z,4.92
2019-02-03T01:28:13.630Z,4.92
2019-02-03T01:29:13.620Z,4.82
2019-02-03T01:30:13.612Z,5.01
2019-02-03T01:31:13.603Z,4.82
2019-02-03T01:32:13.594Z,4.82
2019-02-03T01:33:13.586Z,4.92
2019-02-03T01:34:13.578Z,4.63
2019-02-03T01:35:13.568Z,4.73
2019-02-03T01:36:13.560Z,4.63
2019-02-03T01:37:13.551Z,4.82
2019-02-03T01:38:13.542Z,4.92
2019-02-03T01:39:13.532Z,5.01
2019-02-03T01:40:13.524Z,4.92
2019-02-03T01:41:13.516Z,4.92
2019-02-03T01:42:13.507Z,4.63
2019-02-03T01:43:13.499Z,4.44
2019-02-03T01:44:13.489Z,4.73
2019-02-03T01:45:13.482Z,4.54
2019-02-03T01:46:13.473Z,5.01
2019-02-03T01:47:13.473Z,4.82
2019-02-03T01:48:13.455Z,4.92
2019-02-03T01:49:13.447Z,4.73
2019-02-03T01:50:13.439Z,4.73
2019-02-03T01:51:13.429Z,4.63
2019-02-03T01:52:13.421Z,4.44
2019-02-03T01:53:13.412Z,4.35
2019-02-03T01:54:13.405Z,4.63
2019-02-03T01:55:13.395Z,4.73
2019-02-03T01:56:13.387Z,4.63
2019-02-03T01:57:13.377Z,4.25
2019-02-03T01:58:13.369Z,4.54
2019-02-03T01:59:13.360Z,4.16
2019-02-03T02:00:13.354Z,4.44
2019-02-03T02:01:13.344Z,4.44
2019-02-03T02:02:13.335Z,4.44
2019-02-03T02:03:13.327Z,4.06
2019-02-03T02:04:13.318Z,4.06
2019-02-03T02:05:13.312Z,4.06
2019-02-03T02:06:13.302Z,3.78
2019-02-03T02:07:13.291Z,3.78
2019-02-03T02:08:13.283Z,3.69
2019-02-03T02:09:13.275Z,3.59
2019-02-03T02:10:13.268Z,3.50
2019-02-03T02:11:13.258Z,3.12
2019-02-03T02:12:13.249Z,3.12
2019-02-03T02:13:13.241Z,3.22
2019-02-03T02:14:13.233Z,3.31
2019-02-03T02:15:13.223Z,3.41
2019-02-03T02:16:13.214Z,3.22
2019-02-03T02:17:13.209Z,3.03
2019-02-03T02:18:13.197Z,3.12
2019-02-03T02:19:13.188Z,3.03
2019-02-03T02:20:13.179Z,2.93
2019-02-03T02:21:13.170Z,2.74
2019-02-03T02:22:13.162Z,2.84
2019-02-03T02:23:13.154Z,2.55
2019-02-03T02:24:13.145Z,2.84
2019-02-03T02:25:13.137Z,2.27
2019-02-03T02:26:13.127Z,2.27
2019-02-03T02:27:13.118Z,2.65
2019-02-03T02:28:13.109Z,2.36
2019-02-03T02:29:13.102Z,2.17
2019-02-03T02:30:13.093Z,2.36
2019-02-03T02:31:13.084Z,2.36
2019-02-03T02:32:13.079Z,2.46
2019-02-03T02:33:13.067Z,2.08
2019-02-03T02:34:13.065Z,2.17
2019-02-03T02:35:13.050Z,2.08
2019-02-03T02:36:13.045Z,2.27
2019-02-03T02:37:13.034Z,2.36
2019-02-03T02:38:13.026Z,1.89
2019-02-03T02:39:13.019Z,1.70
2019-02-03T02:40:13.503Z,2.08
2019-02-03T02:41:12.998Z,1.51
2019-02-03T02:42:12.992Z,1.61
2019-02-03T02:43:12.980Z,1.42
2019-02-03T02:44:12.969Z,1.51
2019-02-03T02:45:12.962Z,1.42
2019-02-03T02:46:12.953Z,1.42
2019-02-03T02:47:12.944Z,1.14
2019-02-03T02:48:12.936Z,1.23
2019-02-03T02:49:12.927Z,1.23
2019-02-03T02:50:12.918Z,1.32
2019-02-03T02:51:12.909Z,1.14
2019-02-03T02:52:12.898Z,1.04
2019-02-03T02:53:12.891Z,0.85
2019-02-03T02:54:12.881Z,0.85
2019-02-03T02:55:12.875Z,0.95
2019-02-03T02:56:12.863Z,0.95
2019-02-03T02:57:12.855Z,0.95
2019-02-03T02:58:12.845Z,0.57
2019-02-03T02:59:12.839Z,0.85
2019-02-03T03:00:12.826Z,0.66
2019-02-03T03:01:12.818Z,0.95
2019-02-03T03:02:12.810Z,0.95
2019-02-03T03:03:12.801Z,0.57
2019-02-03T03:04:12.794Z,0.57
2019-02-03T03:05:12.792Z,0.28
2019-02-03T03:06:12.779Z,0.47
2019-02-03T03:07:12.764Z,0.28
2019-02-03T03:08:19.063Z,0.00
2019-02-03T03:09:12.749Z,0.28
2019-02-03T03:10:12.744Z,0.19
2019-02-03T03:11:12.728Z,0.38
2019-02-03T03:12:12.718Z,0.19
2019-02-03T03:13:12.710Z,0.19
2019-02-03T03:14:12.700Z,0.00
2019-02-03T03:15:12.699Z,0.00
2019-02-03T03:16:12.683Z,0.00
2019-02-03T03:17:12.674Z,0.00
2019-02-03T03:18:12.665Z,0.00
2019-02-03T03:19:12.662Z,0.00
2019-02-03T03:20:12.646Z,0.00
2019-02-03T03:21:12.637Z,0.00
2019-02-03T03:22:12.627Z,0.00
2019-02-03T03:23:12.620Z,0.00
2019-02-03T03:24:12.613Z,0.00
2019-02-03T03:25:12.601Z,0.00
2019-02-03T03:26:12.593Z,0.00
2019-02-03T03:27:12.595Z,0.00
2019-02-03T03:28:12.574Z,0.00
2019-02-03T03:29:12.569Z,0.00
2019-02-03T03:30:12.558Z,0.00
2019-02-03T03:31:12.548Z,0.00
2019-02-03T03:32:12.545Z,0.00
2019-02-03T03:33:12.536Z,0.00
2019-02-03T03:34:12.517Z,0.00
2019-02-03T03:35:12.510Z,0.00
2019-02-03T03:36:12.499Z,0.00
2019-02-03T03:37:12.490Z,0.00
2019-02-03T03:38:12.480Z,0.00
2019-02-03T03:39:12.473Z,0.00
2019-02-03T03:40:12.462Z,0.00
2019-02-03T03:41:12.454Z,0.00
2019-02-03T03:42:12.444Z,0.00
2019-02-03T03:43:12.434Z,0.00
2019-02-03T03:44:12.425Z,0.00
2019-02-03T03:45:12.415Z,0.00
2019-02-03T03:46:12.410Z,0.00
2019-02-03T03:47:12.399Z,0.00
2019-02-03T03:48:12.390Z,0.00
2019-02-03T03:49:12.380Z,0.00
2019-02-03T03:50:12.371Z,0.00
2019-02-03T03:51:12.360Z,0.00
2019-02-03T03:52:12.469Z,0.00
2019-02-03T03:53:12.342Z,0.00
2019-02-03T03:54:12.333Z,0.00
2019-02-03T03:55:12.325Z,0.00
2019-02-03T03:56:12.314Z,0.00
2019-02-03T03:57:12.304Z,0.00
2019-02-03T03:58:12.297Z,0.00
2019-02-03T03:59:12.285Z,0.00
2019-02-03T04:00:12.305Z,0.00
2019-02-03T04:01:12.268Z,0.00
2019-02-03T04:02:12.258Z,0.00
2019-02-03T04:03:12.247Z,0.00
2019-02-03T04:04:12.239Z,0.00
2019-02-03T04:05:12.229Z,0.00
2019-02-03T04:06:12.240Z,0.00
2019-02-03T04:07:12.227Z,0.00
2019-02-03T04:08:12.333Z,0.00
2019-02-03T04:09:12.194Z,0.00
2019-02-03T04:10:12.182Z,0.00
2019-02-03T04:11:12.174Z,0.00
2019-02-03T04:12:12.166Z,0.00
2019-02-03T04:13:12.157Z,0.00
2019-02-03T04:14:12.144Z,0.00
2019-02-03T04:15:12.136Z,0.00
2019-02-03T04:16:12.129Z,0.00
2019-02-03T04:17:12.119Z,0.00
2019-02-03T04:18:12.107Z,0.00
2019-02-03T04:19:12.099Z,0.00
2019-02-03T04:20:12.093Z,0.00
2019-02-03T04:21:12.082Z,0.00
2019-02-03T04:22:12.070Z,0.00
2019-02-03T04:23:12.059Z,0.00
2019-02-03T04:24:12.050Z,0.00
2019-02-03T04:25:12.044Z,0.00
2019-02-03T04:26:12.032Z,0.00
2019-02-03T04:27:12.023Z,0.00
2019-02-03T04:28:12.015Z,0.00
2019-02-03T04:29:12.415Z,0.00
2019-02-03T04:30:11.995Z,0.00
2019-02-03T04:31:11.994Z,0.00
2019-02-03T04:32:11.975Z,0.00
2019-02-03T04:33:11.967Z,0.00
2019-02-03T04:34:11.958Z,0.00
2019-02-03T04:35:11.950Z,0.00
2019-02-03T04:36:11.939Z,0.00
2019-02-03T04:37:11.928Z,0.00
2019-02-03T04:38:11.919Z,0.00
2019-02-03T04:39:11.910Z,0.00
2019-02-03T04:40:11.901Z,0.00
2019-02-03T04:41:11.890Z,0.00
2019-02-03T04:42:11.881Z,0.00
2019-02-03T04:43:11.873Z,0.00
2019-02-03T04:44:11.864Z,0.00
2019-02-03T04:45:11.854Z,0.00
2019-02-03T04:46:11.845Z,0.00
2019-02-03T04:47:11.834Z,0.00
2019-02-03T04:48:11.824Z,0.00
2019-02-03T04:49:11.814Z,0.00
2019-02-03T04:50:11.806Z,0.00
2019-02-03T04:51:11.796Z,0.00
2019-02-03T04:52:11.790Z,0.00
2019-02-03T04:53:11.779Z,0.00
2019-02-03T04:54:11.785Z,0.00
2019-02-03T04:55:11.760Z,0.00
2019-02-03T04:56:11.754Z,0.00
2019-02-03T04:57:11.742Z,0.00
2019-02-03T04:58:11.733Z,0.00
2019-02-03T04:59:11.723Z,0.00
2019-02-03T05:00:11.713Z,0.00
2019-02-03T05:01:11.705Z,0.00
2019-02-03T05:02:11.695Z,0.00
2019-02-03T05:03:11.685Z,0.00
2019-02-03T05:04:11.678Z,0.00
2019-02-03T05:05:11.670Z,0.00
2019-02-03T05:06:11.660Z,0.00
2019-02-03T05:07:11.648Z,0.00
2019-02-03T05:08:11.640Z,0.00
2019-02-03T05:09:11.646Z,0.00
2019-02-03T05:10:11.622Z,0.00
2019-02-03T05:11:11.614Z,0.00
2019-02-03T05:12:11.604Z,0.00
2019-02-03T05:13:11.594Z,0.00
2019-02-03T05:14:11.587Z,0.00
2019-02-03T05:15:11.574Z,0.00
2019-02-03T05:16:11.565Z,0.00
2019-02-03T05:17:11.557Z,0.00
2019-02-03T05:18:11.548Z,0.00
2019-02-03T05:19:11.538Z,0.00
2019-02-03T05:20:11.529Z,0.00
2019-02-03T05:21:11.522Z,0.00
2019-02-03T05:22:11.513Z,0.00
2019-02-03T05:23:11.502Z,0.00
2019-02-03T05:24:11.493Z,0.00
2019-02-03T05:25:11.485Z,0.00
2019-02-03T05:26:11.475Z,0.00
2019-02-03T05:27:11.465Z,0.00
2019-02-03T05:28:11.456Z,0.00
2019-02-03T05:29:11.447Z,0.00
2019-02-03T05:30:11.437Z,0.09
2019-02-03T05:31:11.438Z,0.28
2019-02-03T05:32:11.420Z,0.47
2019-02-03T05:33:11.410Z,0.57
2019-02-03T05:34:11.401Z,0.76
2019-02-03T05:35:11.397Z,0.85
2019-02-03T05:36:11.384Z,1.14
2019-02-03T05:37:11.372Z,1.23
2019-02-03T05:38:11.363Z,1.70
2019-02-03T05:39:24.013Z,1.61
2019-02-03T05:40:11.346Z,2.08
2019-02-03T05:41:11.336Z,2.46
2019-02-03T05:42:11.326Z,2.17
2019-02-03T05:43:11.314Z,2.27
2019-02-03T05:44:11.306Z,2.74
2019-02-03T05:45:11.299Z,2.27
2019-02-03T05:46:11.293Z,2.65
2019-02-03T05:47:11.279Z,2.36
2019-02-03T05:48:11.268Z,2.74
2019-02-03T05:49:11.261Z,2.36
2019-02-03T05:50:11.252Z,3.03
2019-02-03T05:51:11.242Z,3.03
2019-02-03T05:52:11.232Z,2.74
2019-02-03T05:53:11.223Z,2.84
2019-02-03T05:54:11.214Z,3.31
2019-02-03T05:55:11.206Z,3.22
2019-02-03T05:56:11.194Z,3.50
2019-02-03T05:57:11.184Z,3.59
2019-02-03T05:58:11.178Z,3.41
2019-02-03T05:59:11.166Z,3.59
2019-02-03T06:00:11.159Z,3.59
2019-02-03T06:01:11.149Z,3.69
2019-02-03T06:02:11.140Z,3.22
2019-02-03T06:03:11.174Z,3.31
2019-02-03T06:04:11.120Z,3.22
2019-02-03T06:05:11.111Z,3.31
2019-02-03T06:06:11.102Z,3.31
2019-02-03T06:07:11.093Z,3.31
2019-02-03T06:08:11.083Z,3.31
2019-02-03T06:09:11.073Z,3.22
2019-02-03T06:10:11.064Z,3.78
2019-02-03T06:11:11.058Z,4.16
2019-02-03T06:12:11.045Z,4.25
2019-02-03T06:13:11.040Z,4.06
2019-02-03T06:14:11.029Z,4.25
2019-02-03T06:15:11.019Z,4.73
2019-02-03T06:16:11.009Z,4.82
2019-02-03T06:17:10.999Z,5.11
2019-02-03T06:18:10.991Z,5.01
2019-02-03T06:19:10.980Z,5.58
2019-02-03T06:20:10.973Z,5.58
2019-02-03T06:21:10.962Z,5.87
2019-02-03T06:22:10.952Z,5.58
2019-02-03T06:23:10.943Z,6.15
2019-02-03T06:24:10.934Z,6.15
2019-02-03T06:25:10.926Z,5.96
2019-02-03T06:26:10.916Z,6.15
2019-02-03T06:27:10.907Z,6.15
2019-02-03T06:28:10.897Z,6.52
2019-02-03T06:29:10.886Z,6.90
2019-02-03T06:30:10.877Z,6.71
2019-02-03T06:31:13.988Z,7.09
2019-02-03T06:32:10.868Z,7.38
2019-02-03T06:33:10.850Z,7.38
2019-02-03T06:34:10.841Z,7.95
2019-02-03T06:35:10.830Z,8.23
2019-02-03T06:36:10.833Z,8.23
2019-02-03T06:37:10.813Z,8.51
2019-02-03T06:38:10.802Z,8.80
2019-02-03T06:39:10.792Z,8.80
2019-02-03T06:40:10.786Z,8.70
2019-02-03T06:41:10.774Z,9.27
2019-02-03T06:42:10.765Z,8.98
2019-02-03T06:43:10.753Z,9.46
2019-02-03T06:44:10.745Z,9.36
2019-02-03T06:45:10.739Z,9.08
2019-02-03T06:46:10.729Z,9.08
2019-02-03T06:47:10.714Z,9.46
2019-02-03T06:48:10.707Z,9.46
2019-02-03T06:49:10.698Z,8.70
2019-02-03T06:50:10.689Z,9.17
2019-02-03T06:51:10.679Z,8.89
2019-02-03T06:52:10.669Z,8.80
2019-02-03T06:53:10.662Z,8.80
2019-02-03T06:54:10.653Z,9.08
2019-02-03T06:55:10.639Z,8.98
2019-02-03T06:56:10.630Z,9.36
2019-02-03T06:57:10.625Z,9.08
2019-02-03T06:58:10.612Z,8.70
2019-02-03T06:59:10.601Z,9.17
2019-02-03T07:00:10.591Z,9.17
2019-02-03T07:01:10.583Z,9.08
2019-02-03T07:02:10.578Z,9.36
2019-02-03T07:03:10.563Z,10.03
2019-02-03T07:04:10.553Z,9.93
2019-02-03T07:05:10.553Z,9.65
2019-02-03T07:06:10.534Z,9.46
2019-02-03T07:07:10.524Z,9.93
2019-02-03T07:08:10.515Z,9.08
2019-02-03T07:09:10.504Z,9.17
2019-02-03T07:10:10.494Z,9.17
2019-02-03T07:11:10.484Z,9.36
2019-02-03T07:12:10.476Z,10.03
2019-02-03T07:13:10.466Z,9.36
2019-02-03T07:14:10.455Z,9.36
2019-02-03T07:15:10.446Z,9.45
2019-02-03T07:16:10.435Z,9.45
2019-02-03T07:17:10.427Z,9.17
2019-02-03T07:18:10.416Z,9.45
2019-02-03T07:19:10.406Z,9.36
2019-02-03T07:20:10.400Z,8.79
2019-02-03T07:21:10.387Z,8.79
2019-02-03T07:22:10.377Z,8.89
2019-02-03T07:23:10.367Z,8.79
2019-02-03T07:24:10.357Z,8.60
2019-02-03T07:25:10.348Z,8.89
2019-02-03T07:26:10.338Z,8.70
2019-02-03T07:27:11.968Z,8.70
2019-02-03T07:28:10.317Z,8.32
2019-02-03T07:29:10.307Z,8.03
2019-02-03T07:30:10.298Z,8.41
2019-02-03T07:31:10.287Z,8.03
2019-02-03T07:32:10.277Z,6.81
2019-02-03T07:33:10.266Z,7.37
2019-02-03T07:34:10.256Z,7.46
2019-02-03T07:35:10.405Z,7.56
2019-02-03T07:36:10.238Z,7.84
2019-02-03T07:37:10.226Z,7.37
2019-02-03T07:38:10.725Z,7.18
2019-02-03T07:39:10.205Z,7.18
2019-02-03T07:40:12.470Z,6.81
2019-02-03T07:41:10.186Z,6.62
2019-02-03T07:42:10.176Z,6.52
2019-02-03T07:43:10.166Z,6.33
2019-02-03T07:44:10.155Z,5.77
2019-02-03T07:45:10.146Z,5.58
2019-02-03T07:46:10.141Z,6.33
2019-02-03T07:47:10.127Z,6.24
2019-02-03T07:48:10.116Z,6.05
2019-02-03T07:49:10.105Z,5.86
2019-02-03T07:50:10.096Z,5.96
2019-02-03T07:51:10.084Z,5.96
2019-02-03T07:52:10.157Z,5.58
2019-02-03T07:53:10.067Z,5.77
2019-02-03T07:54:10.056Z,5.96
2019-02-03T07:55:10.047Z,6.34
2019-02-03T07:56:10.036Z,6.24
2019-02-03T07:57:10.027Z,6.43
2019-02-03T07:58:12.325Z,6.52
2019-02-03T07:59:10.004Z,6.71
2019-02-03T08:00:09.994Z,7.00
2019-02-03T08:01:09.985Z,6.52
2019-02-03T08:02:09.977Z,6.90
2019-02-03T08:03:09.965Z,6.52
2019-02-03T08:04:09.955Z,6.62
2019-02-03T08:05:09.945Z,6.62
2019-02-03T08:06:09.937Z,6.71
2019-02-03T08:07:09.927Z,6.90
2019-02-03T08:08:09.916Z,7.19
2019-02-03T08:09:09.907Z,7.85
2019-02-03T08:10:09.898Z,7.38
2019-02-03T08:11:09.887Z,7.57
2019-02-03T08:12:09.878Z,7.85
2019-02-03T08:13:09.869Z,8.80
2019-02-03T08:14:09.859Z,8.61
2019-02-03T08:15:09.847Z,9.08
2019-02-03T08:16:09.839Z,9.17
2019-02-03T08:17:09.830Z,9.36
2019-02-03T08:18:09.819Z,9.93
2019-02-03T08:19:09.811Z,10.41
2019-02-03T08:20:09.800Z,10.60
2019-02-03T08:21:09.792Z,10.88
2019-02-03T08:22:09.782Z,10.78
2019-02-03T08:23:09.771Z,11.44
2019-02-03T08:24:09.886Z,11.44
2019-02-03T08:25:09.757Z,11.25
2019-02-03T08:26:09.743Z,11.54
2019-02-03T08:27:09.734Z,11.82
2019-02-03T08:28:09.724Z,12.01
2019-02-03T08:29:09.715Z,11.63
2019-02-03T08:30:09.706Z,11.82
2019-02-03T08:31:09.696Z,11.73
2019-02-03T08:32:09.690Z,11.82
2019-02-03T08:33:09.678Z,12.20
2019-02-03T08:34:09.669Z,12.30
2019-02-03T08:35:09.658Z,12.11
2019-02-03T08:36:09.650Z,12.68
2019-02-03T08:37:09.656Z,13.34
2019-02-03T08:38:09.630Z,13.43
2019-02-03T08:39:09.622Z,13.71
2019-02-03T08:40:09.612Z,14.19
2019-02-03T08:41:09.603Z,14.28
2019-02-03T08:42:09.594Z,14.95
2019-02-03T08:43:09.584Z,15.14
2019-02-03T08:44:09.578Z,15.42
2019-02-03T08:45:09.566Z,16.36
2019-02-03T08:46:09.557Z,16.55
2019-02-03T08:47:09.547Z,17.31
2019-02-03T08:48:09.537Z,17.03
2019-02-03T08:49:09.529Z,17.41
2019-02-03T08:50:09.519Z,17.88
2019-02-03T08:51:09.510Z,18.93
2019-02-03T08:52:09.500Z,19.21
2019-02-03T08:53:09.493Z,19.77
2019-02-03T08:54:09.484Z,20.53
2019-02-03T08:55:09.472Z,21.00
2019-02-03T08:56:09.464Z,21.76
2019-02-03T08:57:09.454Z,22.23
2019-02-03T08:58:09.447Z,22.52
2019-02-03T08:59:09.438Z,23.18
2019-02-03T09:00:09.428Z,23.66
2019-02-03T09:01:09.417Z,24.13
2019-02-03T09:02:09.410Z,24.51
2019-02-03T09:03:09.399Z,25.18
2019-02-03T09:04:09.391Z,25.84
2019-02-03T09:05:09.383Z,26.12
2019-02-03T09:06:09.373Z,27.35
2019-02-03T09:07:09.364Z,27.26
2019-02-03T09:08:09.398Z,28.67
2019-02-03T09:09:09.345Z,28.67
2019-02-03T09:10:09.336Z,29.24
2019-02-03T09:11:09.328Z,29.34
2019-02-03T09:12:09.318Z,30.00
2019-02-03T09:13:09.311Z,30.38
2019-02-03T09:14:09.300Z,31.04
2019-02-03T09:15:09.294Z,31.42
2019-02-03T09:16:11.896Z,31.23
2019-02-03T09:17:09.272Z,31.90
2019-02-03T09:18:09.264Z,31.80
2019-02-03T09:19:09.258Z,31.42
2019-02-03T09:20:09.247Z,31.90
2019-02-03T09:21:09.238Z,31.61
2019-02-03T09:22:09.229Z,32.56
2019-02-03T09:23:09.221Z,32.65
2019-02-03T09:24:09.212Z,32.84
2019-02-03T09:25:09.202Z,33.22
2019-02-03T09:26:09.193Z,33.79
2019-02-03T09:27:09.184Z,34.36
2019-02-03T09:28:09.177Z,34.74
2019-02-03T09:29:09.171Z,34.74
2019-02-03T09:30:09.158Z,34.92
2019-02-03T09:31:09.150Z,35.96
2019-02-03T09:32:11.176Z,35.77
2019-02-03T09:33:09.133Z,35.58
2019-02-03T09:34:09.125Z,36.63
2019-02-03T09:35:09.114Z,36.35
2019-02-03T09:36:09.108Z,36.63
2019-02-03T09:37:09.098Z,37.19
2019-02-03T09:38:09.090Z,37.76
2019-02-03T09:39:09.080Z,38.62
2019-02-03T09:40:09.072Z,38.81
2019-02-03T09:41:09.063Z,39.56
2019-02-03T09:42:09.055Z,39.84
2019-02-03T09:43:09.047Z,40.03
2019-02-03T09:44:09.038Z,39.65
2019-02-03T09:45:09.028Z,40.32
2019-02-03T09:46:09.020Z,40.25
2019-02-03T09:47:09.011Z,40.72
2019-02-03T09:48:09.003Z,41.66
2019-02-03T09:49:08.993Z,42.04
2019-02-03T09:50:08.987Z,42.61
2019-02-03T09:51:08.976Z,43.84
2019-02-03T09:52:08.966Z,44.13
2019-02-03T09:53:08.960Z,44.79
2019-02-03T09:54:08.950Z,44.98
2019-02-03T09:55:08.945Z,45.07
2019-02-03T09:56:08.934Z,46.50
2019-02-03T09:57:08.926Z,47.53
2019-02-03T09:58:08.918Z,47.53
2019-02-03T09:59:08.908Z,48.86
2019-02-03T10:00:08.899Z,48.77
2019-02-03T10:01:08.892Z,49.52
2019-02-03T10:02:08.883Z,50.19
2019-02-03T10:03:08.874Z,50.57
2019-02-03T10:04:08.867Z,50.57
2019-02-03T10:05:08.858Z,51.89
2019-02-03T10:06:08.850Z,51.89
2019-02-03T10:07:08.843Z,51.51
2019-02-03T10:08:08.832Z,52.37
2019-02-03T10:09:08.827Z,52.84
2019-02-03T10:10:08.817Z,53.13
2019-02-03T10:11:12.177Z,53.22
2019-02-03T10:12:08.800Z,54.93
2019-02-03T10:13:08.791Z,55.58
2019-02-03T10:14:08.795Z,54.67
2019-02-03T10:15:08.773Z,55.71
2019-02-03T10:16:08.766Z,56.66
2019-02-03T10:17:08.763Z,56.94
2019-02-03T10:18:08.751Z,58.26
2019-02-03T10:19:08.742Z,59.31
2019-02-03T10:20:08.733Z,58.55
2019-02-03T10:21:08.725Z,60.64
2019-02-03T10:22:08.719Z,63.89
2019-02-03T10:23:08.712Z,69.04
2019-02-03T10:24:08.702Z,78.19
2019-02-03T10:25:08.696Z,81.51
2019-02-03T10:26:08.688Z,82.59
2019-02-03T10:27:08.683Z,85.39
2019-02-03T10:28:08.676Z,86.05
2019-02-03T10:29:08.669Z,87.05
2019-02-03T10:30:08.666Z,86.61
2019-02-03T10:31:08.657Z,86.33
2019-02-03T10:32:08.655Z,85.53
2019-02-03T10:33:08.650Z,85.38
2019-02-03T10:34:08.646Z,85.95
2019-02-03T10:35:08.641Z,84.33
2019-02-03T10:36:08.644Z,85.19
2019-02-03T10:37:08.635Z,84.33
2019-02-03T10:38:08.637Z,84.38
2019-02-03T10:39:08.635Z,83.39
2019-02-03T10:40:08.623Z,83.67
2019-02-03T10:41:08.621Z,82.71
2019-02-03T10:42:08.619Z,83.00
2019-02-03T10:43:08.616Z,83.10
2019-02-03T10:44:08.613Z,83.14
2019-02-03T10:45:08.611Z,83.18
2019-02-03T10:46:08.609Z,82.14
2019-02-03T10:47:08.606Z,81.52
2019-02-03T10:48:08.711Z,81.20
2019-02-03T10:49:08.658Z,82.05
2019-02-03T10:50:08.599Z,82.34
2019-02-03T10:51:08.595Z,82.19
2019-02-03T10:52:08.744Z,82.28
2019-02-03T10:53:08.593Z,81.77
2019-02-03T10:54:08.592Z,82.15
2019-02-03T10:55:08.588Z,82.39
2019-02-03T10:56:08.586Z,83.06
2019-02-03T10:57:08.585Z,82.91
2019-02-03T10:58:08.583Z,82.71
2019-02-03T10:59:08.582Z,83.76
2019-02-03T11:00:17.885Z,82.62
2019-02-03T11:01:08.578Z,83.06
2019-02-03T11:02:08.575Z,82.91
2019-02-03T11:03:08.574Z,83.15
2019-02-03T11:04:08.571Z,82.87
2019-02-03T11:05:08.571Z,83.48
2019-02-03T11:06:08.568Z,83.76
2019-02-03T11:07:08.572Z,83.72
2019-02-03T11:08:08.564Z,82.87
2019-02-03T11:09:08.563Z,83.68
2019-02-03T11:10:08.561Z,83.49
2019-02-03T11:11:08.558Z,83.64
2019-02-03T11:12:08.556Z,82.12
2019-02-03T11:13:08.553Z,80.69
2019-02-03T11:14:08.553Z,81.13
2019-02-03T11:15:08.548Z,80.18
2019-02-03T11:16:08.645Z,79.71
2019-02-03T11:17:08.543Z,80.27
2019-02-03T11:18:08.541Z,80.56
2019-02-03T11:19:08.538Z,80.27
2019-02-03T11:20:08.537Z,82.03
2019-02-03T11:21:08.621Z,83.26
2019-02-03T11:22:08.536Z,85.68
2019-02-03T11:23:08.525Z,86.63
2019-02-03T11:24:08.523Z,87.24
2019-02-03T11:25:08.517Z,86.34
2019-02-03T11:26:08.514Z,83.45
2019-02-03T11:27:08.516Z,81.93
2019-02-03T11:28:08.508Z,81.13
2019-02-03T11:29:08.504Z,81.04
2019-02-03T11:30:08.500Z,80.37
2019-02-03T11:31:08.495Z,79.61
2019-02-03T11:32:08.492Z,80.37
2019-02-03T11:33:09.611Z,80.46
2019-02-03T11:34:08.486Z,80.18
2019-02-03T11:35:08.480Z,80.04
2019-02-03T11:36:08.478Z,78.38
2019-02-03T11:37:08.474Z,78.28
2019-02-03T11:38:08.473Z,77.90
2019-02-03T11:39:08.465Z,78.75
2019-02-03T11:40:08.463Z,78.38
2019-02-03T11:41:08.457Z,79.14
2019-02-03T11:42:08.453Z,79.90
2019-02-03T11:43:08.449Z,79.38
2019-02-03T11:44:08.444Z,78.24
2019-02-03T11:45:08.439Z,77.86
2019-02-03T11:46:08.437Z,76.15
2019-02-03T11:47:08.435Z,75.96
2019-02-03T11:48:08.477Z,74.73
2019-02-03T11:49:08.423Z,76.06
2019-02-03T11:50:08.417Z,79.61
2019-02-03T11:51:08.412Z,81.55
2019-02-03T11:52:08.411Z,81.93
2019-02-03T11:53:08.404Z,82.59
2019-02-03T11:54:08.401Z,83.73
2019-02-03T11:55:08.395Z,80.94
2019-02-03T11:56:08.391Z,81.60
2019-02-03T11:57:08.387Z,80.37
2019-02-03T11:58:08.381Z,82.59
2019-02-03T11:59:08.378Z,82.69
2019-02-03T12:00:08.373Z,82.03
2019-02-03T12:01:08.366Z,83.11
2019-02-03T12:02:08.362Z,84.91
2019-02-03T12:03:08.358Z,85.39
2019-02-03T12:04:08.353Z,84.82
2019-02-03T12:05:08.349Z,84.63
2019-02-03T12:06:08.346Z,83.16
2019-02-03T12:07:08.338Z,82.17
2019-02-03T12:08:08.333Z,80.75
2019-02-03T12:09:08.330Z,80.22
2019-02-03T12:10:08.324Z,81.84
2019-02-03T12:11:08.320Z,81.65
2019-02-03T12:12:08.314Z,81.93
2019-02-03T12:13:08.311Z,80.79
2019-02-03T12:14:08.307Z,81.65
2019-02-03T12:15:08.300Z,81.13
2019-02-03T12:16:08.296Z,80.46
2019-02-03T12:17:08.292Z,80.03
2019-02-03T12:18:08.287Z,80.51
2019-02-03T12:19:08.282Z,81.17
2019-02-03T12:20:08.281Z,81.07
2019-02-03T12:21:08.272Z,81.65
2019-02-03T12:22:08.269Z,82.12
2019-02-03T12:23:08.263Z,81.36
2019-02-03T12:24:08.262Z,82.69
2019-02-03T12:25:08.252Z,81.93
2019-02-03T12:26:08.249Z,82.78
2019-02-03T12:27:08.244Z,83.07
2019-02-03T12:28:08.292Z,82.97
2019-02-03T12:29:08.233Z,82.50
2019-02-03T12:30:08.229Z,82.59
2019-02-03T12:31:08.224Z,82.69
2019-02-03T12:32:08.218Z,82.88
2019-02-03T12:33:08.215Z,82.03
2019-02-03T12:34:08.211Z,82.36
2019-02-03T12:35:08.204Z,82.59
2019-02-03T12:36:08.198Z,82.31
2019-02-03T12:37:08.195Z,80.79
2019-02-03T12:38:08.194Z,81.60
2019-02-03T12:39:08.183Z,81.36
2019-02-03T12:40:08.178Z,81.70
2019-02-03T12:41:08.174Z,82.46
2019-02-03T12:42:13.086Z,81.60
2019-02-03T12:43:08.163Z,81.04
2019-02-03T12:44:08.158Z,82.08
2019-02-03T12:45:08.153Z,81.98
2019-02-03T12:46:08.150Z,81.70
2019-02-03T12:47:08.152Z,81.60
2019-02-03T12:48:08.138Z,81.60
2019-02-03T12:49:08.212Z,81.04
2019-02-03T12:50:08.128Z,79.99
2019-02-03T12:51:08.128Z,80.27
2019-02-03T12:52:08.117Z,79.52
2019-02-03T12:53:08.113Z,79.99
2019-02-03T12:54:08.108Z,79.52
2019-02-03T12:55:08.102Z,80.27
2019-02-03T12:56:08.095Z,79.90
2019-02-03T12:57:08.090Z,80.27
2019-02-03T12:58:08.086Z,79.80
2019-02-03T12:59:08.079Z,80.56
2019-02-03T13:00:08.075Z,79.71
2019-02-03T13:01:08.088Z,79.42
2019-02-03T13:02:08.190Z,79.14
2019-02-03T13:03:08.058Z,80.56
2019-02-03T13:04:08.053Z,80.18
2019-02-03T13:05:08.046Z,79.04
2019-02-03T13:06:08.268Z,80.37
2019-02-03T13:07:08.036Z,81.41
2019-02-03T13:08:08.031Z,80.18